createdAt,value
2023-02-12T00:01:25.545Z,3.87
2023-02-12T00:03:53.298Z,4.00
2023-02-12T00:06:21.054Z,4.17
2023-02-12T00:08:51.366Z,4.07
2023-02-12T00:11:21.754Z,4.27
2023-02-12T00:13:49.590Z,3.50
2023-02-12T00:16:20.960Z,4.07
2023-02-12T00:18:49.384Z,4.23
2023-02-12T00:21:17.384Z,4.53
2023-02-12T00:23:45.085Z,3.90
2023-02-12T00:26:15.229Z,3.93
2023-02-12T00:28:43.186Z,4.00
2023-02-12T00:31:13.536Z,3.73
2023-02-12T00:33:42.977Z,4.43
2023-02-12T00:36:14.636Z,4.53
2023-02-12T00:38:42.409Z,4.13
2023-02-12T00:41:10.100Z,4.40
2023-02-12T00:43:37.748Z,3.97
2023-02-12T00:46:07.009Z,4.00
2023-02-12T00:48:34.768Z,3.93
2023-02-12T00:51:04.446Z,3.47
2023-02-12T00:53:33.458Z,4.07
2023-02-12T00:56:01.858Z,4.40
2023-02-12T00:58:29.955Z,3.73
2023-02-12T01:00:57.960Z,3.77
2023-02-12T01:03:26.116Z,3.50
2023-02-12T01:05:54.804Z,3.87
2023-02-12T01:08:23.996Z,3.77
2023-02-12T01:10:57.697Z,4.10
2023-02-12T01:13:26.584Z,3.70
2023-02-12T01:16:03.540Z,3.73
2023-02-12T01:18:31.577Z,4.40
2023-02-12T01:21:00.657Z,3.90
2023-02-12T01:23:29.938Z,4.03
2023-02-12T01:25:59.780Z,3.57
2023-02-12T01:28:27.404Z,4.30
2023-02-12T01:30:55.129Z,3.60
2023-02-12T01:33:22.830Z,3.77
2023-02-12T01:35:50.436Z,3.93
2023-02-12T01:38:18.071Z,3.40
2023-02-12T01:40:47.044Z,4.53
2023-02-12T01:43:14.766Z,3.80
2023-02-12T01:45:52.765Z,3.60
2023-02-12T01:48:23.268Z,3.97
2023-02-12T01:50:52.499Z,3.20
2023-02-12T01:53:23.178Z,3.30
2023-02-12T01:55:56.716Z,4.00
2023-02-12T01:58:27.607Z,3.60
2023-02-12T02:00:55.650Z,3.50
2023-02-12T02:03:23.393Z,3.47
2023-02-12T02:05:57.701Z,4.17
2023-02-12T02:08:25.901Z,3.60
2023-02-12T02:10:54.897Z,4.07
2023-02-12T02:13:40.361Z,3.67
2023-02-12T02:16:15.589Z,3.83
2023-02-12T02:18:48.147Z,3.70
2023-02-12T02:21:43.459Z,3.50
2023-02-12T02:24:38.049Z,3.57
2023-02-12T02:27:21.610Z,3.27
2023-02-12T02:32:56.414Z,3.03
2023-02-12T02:35:30.029Z,3.57
2023-02-12T02:38:08.428Z,3.53
2023-02-12T02:40:42.593Z,3.70
2023-02-12T02:43:17.288Z,3.70
2023-02-12T02:45:48.333Z,3.23
2023-02-12T02:48:21.085Z,3.37
2023-02-12T02:50:52.984Z,3.23
2023-02-12T02:53:27.832Z,3.53
2023-02-12T02:55:59.355Z,4.67
2023-02-12T02:58:31.765Z,3.40
2023-02-12T03:01:04.249Z,3.47
2023-02-12T03:03:39.239Z,4.07
2023-02-12T03:06:12.437Z,3.30
2023-02-12T03:08:43.347Z,3.30
2023-02-12T03:11:16.113Z,3.23
2023-02-12T03:13:49.598Z,3.57
2023-02-12T03:16:21.836Z,3.53
2023-02-12T03:18:55.797Z,3.30
2023-02-12T03:21:36.847Z,3.80
2023-02-12T03:24:11.853Z,3.40
2023-02-12T03:26:44.505Z,3.73
2023-02-12T03:29:12.661Z,3.33
2023-02-12T03:31:54.112Z,3.73
2023-02-12T03:34:31.488Z,3.27
2023-02-12T03:37:04.627Z,3.30
2023-02-12T03:39:42.415Z,3.87
2023-02-12T03:42:15.275Z,3.73
2023-02-12T03:44:49.608Z,3.60
2023-02-12T03:47:26.461Z,3.20
2023-02-12T03:50:03.750Z,3.33
2023-02-12T03:52:31.902Z,3.30
2023-02-12T03:54:59.767Z,3.00
2023-02-12T03:57:32.205Z,3.30
2023-02-12T04:00:02.481Z,3.37
2023-02-12T04:02:30.296Z,3.03
2023-02-12T04:04:59.269Z,3.57
2023-02-12T04:07:26.940Z,3.47
2023-02-12T04:09:54.548Z,3.30
2023-02-12T04:12:35.354Z,3.03
2023-02-12T04:15:20.287Z,3.40
2023-02-12T04:17:53.976Z,3.00
2023-02-12T04:20:32.932Z,2.73
2023-02-12T04:23:13.248Z,3.00
2023-02-12T04:25:50.550Z,3.00
2023-02-12T04:28:27.158Z,2.80
2023-02-12T04:31:00.477Z,3.20
2023-02-12T04:33:34.276Z,3.43
2023-02-12T04:36:08.028Z,2.93
2023-02-12T04:38:39.935Z,3.20
2023-02-12T04:41:08.175Z,3.33
2023-02-12T04:43:38.445Z,3.00
2023-02-12T04:46:08.163Z,3.20
2023-02-12T04:48:37.157Z,3.50
2023-02-12T04:51:06.424Z,3.63
2023-02-12T04:53:34.034Z,2.73
2023-02-12T04:56:01.624Z,3.30
2023-02-12T04:58:29.231Z,3.20
2023-02-12T05:01:00.274Z,3.10
2023-02-12T05:03:27.898Z,2.83
2023-02-12T05:05:55.772Z,3.17
2023-02-12T05:08:24.887Z,2.80
2023-02-12T05:10:52.517Z,3.37
2023-02-12T05:13:20.121Z,2.90
2023-02-12T05:15:47.832Z,3.20
2023-02-12T05:18:15.456Z,3.60
2023-02-12T05:20:43.073Z,2.90
2023-02-12T05:23:10.698Z,3.10
2023-02-12T05:25:39.622Z,2.83
2023-02-12T05:28:07.283Z,3.27
2023-02-12T05:30:34.932Z,3.17
2023-02-12T05:33:02.534Z,2.67
2023-02-12T05:35:30.147Z,2.90
2023-02-12T05:37:57.710Z,2.80
2023-02-12T05:40:25.263Z,2.63
2023-02-12T05:42:54.244Z,3.10
2023-02-12T05:45:21.839Z,3.00
2023-02-12T05:47:49.453Z,2.93
2023-02-12T05:50:17.400Z,2.97
2023-02-12T05:52:45.022Z,2.97
2023-02-12T05:55:12.696Z,2.40
2023-02-12T05:57:40.457Z,3.13
2023-02-12T06:00:11.235Z,2.90
2023-02-12T06:02:38.850Z,3.00
2023-02-12T06:05:07.367Z,2.73
2023-02-12T06:07:35.033Z,2.80
2023-02-12T06:10:02.677Z,2.90
2023-02-12T06:12:30.324Z,2.73
2023-02-12T06:14:57.941Z,2.70
2023-02-12T06:17:26.923Z,3.07
2023-02-12T06:19:54.503Z,2.90
2023-02-12T06:22:22.119Z,2.73
2023-02-12T06:24:49.685Z,3.00
2023-02-12T06:27:17.272Z,2.60
2023-02-12T06:29:45.163Z,2.70
2023-02-12T06:32:13.657Z,3.10
2023-02-12T06:34:42.680Z,2.53
2023-02-12T06:37:14.091Z,2.73
2023-02-12T06:39:41.715Z,2.90
2023-02-12T06:42:09.313Z,2.97
2023-02-12T06:44:36.934Z,3.53
2023-02-12T06:47:04.615Z,2.90
2023-02-12T06:49:32.225Z,2.90
2023-02-12T06:52:03.300Z,2.47
2023-02-12T06:54:31.119Z,2.97
2023-02-12T06:56:58.713Z,2.80
2023-02-12T06:59:26.325Z,2.67
2023-02-12T07:01:53.928Z,2.57
2023-02-12T07:04:21.597Z,2.70
2023-02-12T07:06:50.234Z,4.20
2023-02-12T07:09:19.336Z,3.23
2023-02-12T07:11:46.932Z,3.20
2023-02-12T07:14:15.809Z,2.80
2023-02-12T07:16:44.128Z,3.20
2023-02-12T07:19:14.404Z,2.50
2023-02-12T07:21:42.006Z,2.70
2023-02-12T07:24:11.859Z,3.10
2023-02-12T07:26:42.005Z,2.40
2023-02-12T07:29:09.619Z,3.20
2023-02-12T07:31:37.383Z,2.67
2023-02-12T07:34:05.540Z,2.70
2023-02-12T07:36:34.463Z,2.77
2023-02-12T07:39:02.232Z,2.57
2023-02-12T07:41:31.654Z,2.90
2023-02-12T07:44:03.648Z,2.60
2023-02-12T07:46:33.546Z,2.83
2023-02-12T07:49:04.307Z,3.27
2023-02-12T07:51:32.972Z,2.90
2023-02-12T07:54:01.660Z,2.60
2023-02-12T07:56:32.636Z,2.80
2023-02-12T07:59:03.498Z,3.07
2023-02-12T08:01:34.123Z,2.60
2023-02-12T08:04:04.307Z,2.20
2023-02-12T08:06:33.597Z,2.67
2023-02-12T08:09:03.838Z,2.67
2023-02-12T08:11:33.039Z,3.27
2023-02-12T08:14:02.352Z,2.60
2023-02-12T08:16:31.699Z,3.40
2023-02-12T08:19:14.572Z,3.63
2023-02-12T08:21:43.874Z,2.80
2023-02-12T08:24:12.174Z,2.70
2023-02-12T08:26:41.012Z,2.83
2023-02-12T08:29:12.674Z,2.80
2023-02-12T08:31:42.887Z,2.67
2023-02-12T08:34:18.291Z,2.63
2023-02-12T08:36:46.892Z,3.00
2023-02-12T08:39:15.281Z,2.87
2023-02-12T08:41:43.379Z,2.77
2023-02-12T08:44:13.381Z,3.40
2023-02-12T08:46:44.390Z,2.77
2023-02-12T08:49:14.490Z,2.77
2023-02-12T08:51:44.504Z,2.87
2023-02-12T08:54:14.397Z,2.37
2023-02-12T08:56:42.513Z,2.60
2023-02-12T08:59:10.351Z,3.33
2023-02-12T09:01:41.730Z,2.70
2023-02-12T09:04:18.702Z,2.97
2023-02-12T09:06:47.081Z,2.97
2023-02-12T09:09:15.228Z,2.50
2023-02-12T09:11:43.157Z,3.07
2023-02-12T09:14:13.632Z,2.60
2023-02-12T09:16:42.693Z,2.43
2023-02-12T09:19:13.698Z,2.63
2023-02-12T09:21:41.557Z,2.20
2023-02-12T09:24:09.682Z,2.77
2023-02-12T09:26:37.387Z,2.20
2023-02-12T09:29:06.053Z,3.00
2023-02-12T09:31:34.029Z,2.73
2023-02-12T09:34:04.955Z,2.57
2023-02-12T09:36:33.489Z,2.50
2023-02-12T09:39:01.711Z,2.80
2023-02-12T09:42:15.240Z,2.70
2023-02-12T09:44:48.203Z,2.30
2023-02-12T09:47:21.429Z,2.47
2023-02-12T09:50:07.246Z,2.63
2023-02-12T09:52:35.988Z,2.77
2023-02-12T09:55:04.216Z,2.60
2023-02-12T09:57:35.671Z,2.57
2023-02-12T10:00:07.810Z,2.60
2023-02-12T10:02:37.221Z,2.40
2023-02-12T10:05:07.960Z,2.40
2023-02-12T10:08:03.325Z,2.43
2023-02-12T10:10:45.403Z,2.50
2023-02-12T10:13:26.479Z,2.50
2023-02-12T10:16:03.402Z,2.63
2023-02-12T10:18:50.675Z,2.87
2023-02-12T10:21:32.256Z,2.73
2023-02-12T10:24:22.755Z,2.73
2023-02-12T10:26:55.773Z,2.50
2023-02-12T10:29:26.377Z,2.30
2023-02-12T10:34:33.998Z,3.17
2023-02-12T10:37:06.061Z,2.40
2023-02-12T10:39:39.001Z,2.90
2023-02-12T10:42:15.328Z,2.30
2023-02-12T10:44:43.076Z,2.27
2023-02-12T10:47:19.602Z,2.37
2023-02-12T10:49:50.734Z,2.47
2023-02-12T10:52:31.086Z,2.43
2023-02-12T10:54:58.673Z,2.60
2023-02-12T10:57:29.298Z,2.57
2023-02-12T11:00:00.606Z,2.37
2023-02-12T11:02:29.899Z,2.70
2023-02-12T11:04:59.388Z,2.17
2023-02-12T11:07:29.609Z,2.17
2023-02-12T11:09:58.225Z,2.40
2023-02-12T11:12:32.784Z,2.77
2023-02-12T11:15:02.743Z,2.53
2023-02-12T11:17:36.215Z,2.40
2023-02-12T11:20:21.726Z,2.50
2023-02-12T11:22:59.541Z,2.30
2023-02-12T11:25:29.999Z,2.50
2023-02-12T11:28:05.784Z,2.27
2023-02-12T11:30:33.994Z,2.30
2023-02-12T11:33:32.733Z,2.40
2023-02-12T11:36:06.829Z,2.50
2023-02-12T11:38:40.036Z,2.40
2023-02-12T11:41:25.607Z,2.40
2023-02-12T11:43:54.217Z,2.40
2023-02-12T11:46:24.840Z,2.33
2023-02-12T11:48:54.706Z,2.40
2023-02-12T11:51:26.937Z,2.23
2023-02-12T11:53:59.578Z,2.30
2023-02-12T11:56:42.802Z,2.37
2023-02-12T11:59:28.513Z,2.80
2023-02-12T12:01:57.842Z,2.33
2023-02-12T12:04:31.789Z,2.37
2023-02-12T12:07:02.377Z,2.00
2023-02-12T12:09:38.249Z,2.27
2023-02-12T12:12:13.545Z,2.37
2023-02-12T12:15:04.330Z,2.50
2023-02-12T12:17:58.686Z,2.30
2023-02-12T12:20:30.684Z,2.30
2023-02-12T12:23:04.686Z,2.10
2023-02-12T12:25:37.097Z,2.17
2023-02-12T12:28:18.430Z,1.90
2023-02-12T12:30:56.002Z,2.20
2023-02-12T12:33:31.779Z,2.07
2023-02-12T12:36:23.390Z,2.30
2023-02-12T12:39:01.598Z,2.10
2023-02-12T12:41:43.139Z,2.20
2023-02-12T12:44:26.048Z,2.10
2023-02-12T12:47:11.185Z,2.30
2023-02-12T12:49:49.335Z,1.90
2023-02-12T12:52:54.358Z,2.27
2023-02-12T12:55:45.301Z,2.60
2023-02-12T12:58:27.005Z,2.50
2023-02-12T13:01:19.109Z,2.90
2023-02-12T13:04:07.874Z,2.10
2023-02-12T13:06:57.167Z,2.20
2023-02-12T13:09:46.679Z,2.50
2023-02-12T13:12:34.424Z,2.13
2023-02-12T13:15:10.309Z,1.80
2023-02-12T13:17:46.037Z,1.77
2023-02-12T13:20:22.171Z,1.90
2023-02-12T13:22:58.415Z,1.57
2023-02-12T13:25:32.126Z,1.70
2023-02-12T13:28:02.059Z,1.60
2023-02-12T13:30:34.977Z,1.77
2023-02-12T13:33:08.298Z,1.77
2023-02-12T13:35:40.920Z,1.90
2023-02-12T13:38:10.548Z,1.80
2023-02-12T13:40:38.979Z,1.80
2023-02-12T13:43:18.907Z,2.43
2023-02-12T13:45:54.031Z,1.90
2023-02-12T13:48:45.301Z,1.70
2023-02-12T13:51:22.276Z,3.80
2023-02-12T13:54:05.584Z,2.87
2023-02-12T13:56:42.094Z,1.97
2023-02-12T13:59:43.792Z,3.40
2023-02-12T14:02:46.376Z,3.53
2023-02-12T14:05:22.500Z,2.30
2023-02-12T14:07:52.161Z,2.00
2023-02-12T14:10:27.720Z,2.17
2023-02-12T14:12:59.033Z,3.90
2023-02-12T14:15:33.612Z,1.60
2023-02-12T14:18:24.806Z,1.73
2023-02-12T14:21:25.799Z,1.67
2023-02-12T14:23:54.020Z,2.67
2023-02-12T14:26:24.599Z,1.63
2023-02-12T14:28:55.535Z,3.53
2023-02-12T14:31:44.359Z,1.63
2023-02-12T14:34:49.443Z,2.47
2023-02-12T14:37:35.982Z,1.60
2023-02-12T14:40:44.165Z,1.83
2023-02-12T14:43:27.768Z,2.80
2023-02-12T14:45:56.700Z,1.53
2023-02-12T14:48:46.376Z,1.53
2023-02-12T14:51:21.099Z,2.07
2023-02-12T14:53:52.455Z,2.00
2023-02-12T14:56:22.539Z,1.43
2023-02-12T14:58:51.824Z,1.70
2023-02-12T15:01:27.039Z,1.80
2023-02-12T15:03:56.426Z,2.20
2023-02-12T15:06:35.433Z,2.17
2023-02-12T15:09:10.896Z,1.60
2023-02-12T15:11:44.618Z,3.60
2023-02-12T15:14:17.703Z,2.00
2023-02-12T15:16:53.334Z,2.13
2023-02-12T15:19:40.874Z,2.00
2023-02-12T15:22:24.159Z,1.33
2023-02-12T15:24:53.785Z,2.07
2023-02-12T15:27:22.843Z,1.90
2023-02-12T15:29:53.539Z,1.53
2023-02-12T15:32:28.291Z,1.73
2023-02-12T15:34:57.658Z,1.60
2023-02-12T15:37:28.076Z,1.60
2023-02-12T15:40:00.252Z,1.60
2023-02-12T15:42:30.908Z,2.23
2023-02-12T15:45:18.061Z,1.47
2023-02-12T15:47:55.632Z,1.63
2023-02-12T15:50:23.370Z,1.47
2023-02-12T15:52:52.312Z,1.47
2023-02-12T15:55:25.223Z,1.40
2023-02-12T15:57:55.414Z,1.57
2023-02-12T16:00:30.695Z,1.40
2023-02-12T16:02:58.863Z,1.80
2023-02-12T16:05:27.976Z,1.70
2023-02-12T16:07:56.939Z,1.57
2023-02-12T16:10:27.254Z,1.83
2023-02-12T16:12:55.720Z,1.50
2023-02-12T16:15:31.801Z,1.60
2023-02-12T16:18:04.078Z,1.50
2023-02-12T16:20:32.448Z,1.60
2023-02-12T16:23:00.868Z,1.50
2023-02-12T16:25:32.160Z,2.27
2023-02-12T16:28:02.017Z,1.60
2023-02-12T16:30:32.486Z,2.07
2023-02-12T16:33:01.520Z,1.50
2023-02-12T16:35:32.332Z,1.47
2023-02-12T16:38:03.399Z,1.50
2023-02-12T16:40:36.261Z,1.77
2023-02-12T16:43:25.146Z,1.60
2023-02-12T16:46:03.266Z,1.97
2023-02-12T16:48:31.371Z,2.00
2023-02-12T16:51:02.709Z,1.87
2023-02-12T16:53:43.833Z,1.70
2023-02-12T16:56:18.139Z,2.10
2023-02-12T16:58:48.271Z,2.03
2023-02-12T17:01:23.127Z,1.50
2023-02-12T17:03:51.384Z,1.90
2023-02-12T17:06:21.413Z,1.60
2023-02-12T17:08:48.986Z,1.60
2023-02-12T17:11:18.562Z,2.17
2023-02-12T17:13:47.440Z,2.37
2023-02-12T17:16:29.447Z,1.40
2023-02-12T17:18:58.294Z,2.00
2023-02-12T17:21:28.318Z,1.50
2023-02-12T17:23:56.009Z,1.67
2023-02-12T17:26:26.391Z,2.07
2023-02-12T17:28:53.967Z,2.77
2023-02-12T17:31:21.971Z,1.53
2023-02-12T17:33:50.237Z,1.83
2023-02-12T17:36:17.860Z,2.50
2023-02-12T17:38:45.554Z,1.37
2023-02-12T17:41:13.181Z,1.80
2023-02-12T17:43:42.145Z,1.70
2023-02-12T17:46:11.061Z,1.77
2023-02-12T17:48:38.745Z,2.17
2023-02-12T17:51:06.795Z,1.50
2023-02-12T17:53:34.424Z,1.90
2023-02-12T17:56:02.081Z,1.90
2023-02-12T17:58:29.732Z,2.27
2023-02-12T18:00:59.111Z,1.47
2023-02-12T18:03:27.106Z,2.87
2023-02-12T18:05:54.744Z,1.50
2023-02-12T18:08:22.369Z,2.03
2023-02-12T18:10:50.013Z,1.60
2023-02-12T18:13:17.706Z,1.90
2023-02-12T18:15:45.509Z,1.70
2023-02-12T18:18:16.644Z,2.67
2023-02-12T18:20:44.873Z,1.43
2023-02-12T18:23:13.546Z,3.07
2023-02-12T18:25:42.505Z,2.60
2023-02-12T18:28:11.052Z,3.07
2023-02-12T18:30:42.731Z,2.57
2023-02-12T18:33:10.493Z,2.27
2023-02-12T18:35:41.679Z,1.70
2023-02-12T18:38:09.307Z,2.13
2023-02-12T18:40:40.982Z,1.97
2023-02-12T18:43:08.623Z,1.90
2023-02-12T18:45:36.290Z,1.80
2023-02-12T18:48:06.751Z,2.30
2023-02-12T18:50:34.366Z,2.50
2023-02-12T18:53:03.310Z,1.80
2023-02-12T18:55:30.879Z,1.70
2023-02-12T18:57:58.498Z,3.37
2023-02-12T19:00:26.278Z,2.60
2023-02-12T19:02:53.860Z,2.23
2023-02-12T19:05:21.454Z,2.30
2023-02-12T19:07:49.181Z,2.73
2023-02-12T19:10:18.631Z,1.63
2023-02-12T19:12:46.279Z,1.93
2023-02-12T19:15:13.916Z,2.03
2023-02-12T19:17:41.488Z,2.10
2023-02-12T19:20:10.203Z,2.20
2023-02-12T19:22:38.421Z,2.47
2023-02-12T19:25:06.752Z,1.67
2023-02-12T19:27:35.749Z,1.97
2023-02-12T19:30:03.990Z,2.13
2023-02-12T19:32:31.637Z,2.60
2023-02-12T19:34:59.330Z,2.20
2023-02-12T19:37:26.964Z,2.40
2023-02-12T19:39:54.585Z,2.23
2023-02-12T19:42:22.194Z,1.70
2023-02-12T19:44:51.176Z,2.03
2023-02-12T19:47:18.776Z,1.73
2023-02-12T19:52:18.323Z,1.83
2023-02-12T19:54:46.063Z,1.40
2023-02-12T19:57:13.787Z,2.10
2023-02-12T19:59:42.060Z,1.80
2023-02-12T20:02:11.509Z,1.70
2023-02-12T20:04:39.295Z,1.90
2023-02-12T20:07:08.234Z,1.70
2023-02-12T20:09:36.535Z,2.40
2023-02-12T20:12:04.357Z,3.07
2023-02-12T20:14:31.989Z,2.00
2023-02-12T20:16:59.591Z,3.07
2023-02-12T20:19:30.782Z,1.67
2023-02-12T20:21:59.202Z,2.53
2023-02-12T20:24:29.569Z,2.40
2023-02-12T20:26:58.994Z,2.23
2023-02-12T20:29:26.916Z,2.10
2023-02-12T20:31:54.834Z,2.73
2023-02-12T20:34:23.082Z,2.47
2023-02-12T20:36:52.068Z,2.20
2023-02-12T20:39:21.568Z,1.97
2023-02-12T20:41:50.084Z,2.27
2023-02-12T20:44:21.262Z,1.50
2023-02-12T20:46:54.375Z,1.90
2023-02-12T20:49:26.480Z,2.30
2023-02-12T20:51:55.452Z,2.30
2023-02-12T20:54:23.432Z,2.00
2023-02-12T20:56:51.525Z,2.23
2023-02-12T20:59:20.233Z,1.90
2023-02-12T21:01:48.269Z,2.37
2023-02-12T21:04:17.608Z,2.77
2023-02-12T21:06:47.357Z,2.00
2023-02-12T21:09:16.768Z,2.73
2023-02-12T21:11:45.986Z,2.03
2023-02-12T21:14:24.204Z,2.23
2023-02-12T21:16:53.100Z,2.60
2023-02-12T21:19:21.016Z,1.97
2023-02-12T21:21:49.036Z,1.93
2023-02-12T21:24:20.173Z,1.87
2023-02-12T21:26:48.233Z,1.80
2023-02-12T21:29:15.888Z,1.90
2023-02-12T21:31:45.689Z,2.47
2023-02-12T21:34:15.569Z,1.63
2023-02-12T21:36:46.286Z,2.30
2023-02-12T21:39:15.677Z,1.90
2023-02-12T21:41:44.774Z,2.50
2023-02-12T21:44:14.456Z,2.43
2023-02-12T21:46:42.787Z,2.47
2023-02-12T21:49:11.740Z,2.33
2023-02-12T21:51:41.143Z,1.87
2023-02-12T21:54:11.273Z,1.93
2023-02-12T21:56:40.017Z,1.70
2023-02-12T21:59:09.933Z,1.70
2023-02-12T22:01:39.579Z,2.60
2023-02-12T22:04:08.105Z,1.90
2023-02-12T22:06:38.215Z,2.23
2023-02-12T22:09:07.994Z,2.13
2023-02-12T22:11:36.106Z,2.00
2023-02-12T22:14:04.378Z,2.87
2023-02-12T22:16:33.461Z,1.90
2023-02-12T22:19:02.673Z,2.00
2023-02-12T22:21:33.369Z,4.83
2023-02-12T22:24:02.173Z,2.07
2023-02-12T22:26:31.497Z,2.80
2023-02-12T22:29:01.207Z,2.70
2023-02-12T22:31:30.261Z,2.10
2023-02-12T22:34:01.122Z,2.40
2023-02-12T22:36:29.818Z,2.57
2023-02-12T22:39:01.305Z,2.20
2023-02-12T22:41:29.763Z,1.87
2023-02-12T22:44:00.102Z,2.10
2023-02-12T22:46:28.270Z,2.30
2023-02-12T22:48:55.886Z,1.80
2023-02-12T22:51:27.634Z,2.37
2023-02-12T22:53:55.905Z,2.30
2023-02-12T22:56:24.380Z,1.97
2023-02-12T22:58:55.985Z,2.30
2023-02-12T23:01:24.489Z,2.73
2023-02-12T23:03:52.363Z,2.87
2023-02-12T23:06:21.996Z,2.70
2023-02-12T23:08:53.036Z,2.57
2023-02-12T23:11:21.232Z,2.80
2023-02-12T23:13:48.962Z,2.33
2023-02-12T23:16:16.610Z,2.20
2023-02-12T23:18:44.410Z,2.40
2023-02-12T23:21:12.022Z,2.10
2023-02-12T23:23:39.638Z,2.40
2023-02-12T23:26:08.679Z,2.30
2023-02-12T23:28:36.395Z,2.13
2023-02-12T23:31:04.219Z,2.77
2023-02-12T23:33:31.898Z,2.77
2023-02-12T23:35:59.648Z,2.10
2023-02-12T23:38:27.246Z,1.93
2023-02-12T23:40:55.108Z,1.70
2023-02-12T23:43:24.133Z,1.90
2023-02-12T23:45:51.780Z,2.13
2023-02-12T23:48:20.027Z,1.90
2023-02-12T23:50:49.792Z,1.97
2023-02-12T23:53:18.966Z,2.27
2023-02-12T23:55:46.608Z,2.17
2023-02-12T23:58:14.192Z,2.23
